createdAt,value
2023-01-15T00:02:12.974Z,87.08
2023-01-15T00:05:08.586Z,86.88
2023-01-15T00:07:52.554Z,86.63
2023-01-15T00:10:45.372Z,86.71
2023-01-15T00:13:38.097Z,86.70
2023-01-15T00:16:33.532Z,86.37
2023-01-15T00:19:47.433Z,86.42
2023-01-15T00:22:33.778Z,86.35
2023-01-15T00:25:43.814Z,86.24
2023-01-15T00:28:36.595Z,86.29
2023-01-15T00:31:30.300Z,86.05
2023-01-15T00:34:23.909Z,85.96
2023-01-15T00:37:17.405Z,86.03
2023-01-15T00:40:12.335Z,85.83
2023-01-15T00:43:05.202Z,85.80
2023-01-15T00:45:51.425Z,85.59
2023-01-15T00:48:44.204Z,85.59
2023-01-15T00:51:31.342Z,85.66
2023-01-15T00:54:24.236Z,85.49
2023-01-15T00:57:18.302Z,85.29
2023-01-15T01:00:13.393Z,85.21
2023-01-15T01:03:07.488Z,84.99
2023-01-15T01:06:04.906Z,85.06
2023-01-15T01:08:58.386Z,85.05
2023-01-15T01:11:52.251Z,84.87
2023-01-15T01:14:46.596Z,84.77
2023-01-15T01:17:40.360Z,84.67
2023-01-15T01:20:33.614Z,84.53
2023-01-15T01:23:27.490Z,84.62
2023-01-15T01:26:22.122Z,84.52
2023-01-15T01:29:17.940Z,84.53
2023-01-15T01:32:11.320Z,84.52
2023-01-15T01:35:04.647Z,84.56
2023-01-15T01:38:00.291Z,84.63
2023-01-15T01:40:53.612Z,84.55
2023-01-15T01:44:03.036Z,84.53
2023-01-15T01:46:51.673Z,84.55
2023-01-15T01:49:39.455Z,84.47
2023-01-15T01:52:38.134Z,84.53
2023-01-15T01:55:32.269Z,84.30
2023-01-15T01:58:30.018Z,84.40
2023-01-15T02:01:25.604Z,84.18
2023-01-15T02:04:19.825Z,84.18
2023-01-15T02:07:12.725Z,83.97
2023-01-15T02:09:57.817Z,83.77
2023-01-15T02:12:56.720Z,83.50
2023-01-15T02:15:56.837Z,83.33
2023-01-15T02:18:55.423Z,83.26
2023-01-15T02:21:54.188Z,83.14
2023-01-15T02:25:15.881Z,82.96
2023-01-15T02:28:18.096Z,82.86
2023-01-15T02:31:16.913Z,82.75
2023-01-15T02:34:14.962Z,82.83
2023-01-15T02:37:07.672Z,82.74
2023-01-15T02:40:04.426Z,82.91
2023-01-15T02:42:59.226Z,83.05
2023-01-15T02:45:55.485Z,83.06
2023-01-15T02:48:53.928Z,83.03
2023-01-15T02:51:52.860Z,83.07
2023-01-15T02:54:42.128Z,82.87
2023-01-15T02:57:38.771Z,83.00
2023-01-15T03:00:39.649Z,82.79
2023-01-15T03:03:43.561Z,82.78
2023-01-15T03:06:42.864Z,82.71
2023-01-15T03:09:36.039Z,82.50
2023-01-15T03:12:32.232Z,82.50
2023-01-15T03:15:40.750Z,82.52
2023-01-15T03:18:56.568Z,82.34
2023-01-15T03:21:55.028Z,82.31
2023-01-15T03:24:52.582Z,82.39
2023-01-15T03:27:45.585Z,82.11
2023-01-15T03:30:38.992Z,81.87
2023-01-15T03:33:32.437Z,81.56
2023-01-15T03:36:25.248Z,81.38
2023-01-15T03:39:18.557Z,81.11
2023-01-15T03:42:21.575Z,81.15
2023-01-15T03:45:20.607Z,80.78
2023-01-15T03:48:20.812Z,80.62
2023-01-15T03:51:19.907Z,80.44
2023-01-15T03:54:23.052Z,80.14
2023-01-15T03:57:32.558Z,79.87
2023-01-15T04:00:31.676Z,79.51
2023-01-15T04:03:26.718Z,79.33
2023-01-15T04:06:22.608Z,79.22
2023-01-15T04:09:17.137Z,78.93
2023-01-15T04:12:11.351Z,78.44
2023-01-15T04:15:04.531Z,78.36
2023-01-15T04:17:57.563Z,78.15
2023-01-15T04:20:50.909Z,78.17
2023-01-15T04:23:44.522Z,78.15
2023-01-15T04:26:37.290Z,77.69
2023-01-15T04:29:29.266Z,77.82
2023-01-15T04:32:22.396Z,77.90
2023-01-15T04:35:16.080Z,77.88
2023-01-15T04:38:09.007Z,77.74
2023-01-15T04:41:23.000Z,77.95
2023-01-15T04:44:15.789Z,77.81
2023-01-15T04:47:09.100Z,77.87
2023-01-15T04:50:02.096Z,77.81
2023-01-15T04:52:55.202Z,77.80
2023-01-15T04:55:47.937Z,77.65
2023-01-15T04:58:40.772Z,77.65
2023-01-15T05:01:33.685Z,77.78
2023-01-15T05:04:26.574Z,77.65
2023-01-15T05:07:20.050Z,77.73
2023-01-15T05:10:13.871Z,77.74
2023-01-15T05:13:06.748Z,77.59
2023-01-15T05:16:21.240Z,77.79
2023-01-15T05:19:08.789Z,77.65
2023-01-15T05:22:02.154Z,77.73
2023-01-15T05:24:54.939Z,77.68
2023-01-15T05:27:47.670Z,77.58
2023-01-15T05:30:40.525Z,77.39
2023-01-15T05:33:33.268Z,77.40
2023-01-15T05:36:28.516Z,77.27
2023-01-15T05:39:21.315Z,77.22
2023-01-15T05:42:14.169Z,77.23
2023-01-15T05:45:08.434Z,77.30
2023-01-15T05:48:01.188Z,77.24
2023-01-15T05:50:53.899Z,77.30
2023-01-15T05:53:37.649Z,77.41
2023-01-15T05:56:30.604Z,77.41
2023-01-15T05:59:25.507Z,77.39
2023-01-15T06:02:38.359Z,77.53
2023-01-15T06:05:32.259Z,77.39
2023-01-15T06:08:25.506Z,77.45
2023-01-15T06:11:12.462Z,77.40
2023-01-15T06:14:05.297Z,77.28
2023-01-15T06:16:46.731Z,77.06
2023-01-15T06:19:40.651Z,77.07
2023-01-15T06:22:33.650Z,76.92
2023-01-15T06:25:26.476Z,76.82
2023-01-15T06:28:19.549Z,76.71
2023-01-15T06:31:15.677Z,76.89
2023-01-15T06:34:01.127Z,77.02
2023-01-15T06:36:54.821Z,77.01
2023-01-15T06:39:47.615Z,77.14
2023-01-15T06:42:57.438Z,77.08
2023-01-15T06:46:22.166Z,76.92
2023-01-15T06:48:55.475Z,76.62
2023-01-15T06:51:48.264Z,76.41
2023-01-15T06:54:34.081Z,76.40
2023-01-15T06:57:29.302Z,76.18
2023-01-15T07:00:23.355Z,75.84
2023-01-15T07:03:09.093Z,75.68
2023-01-15T07:06:06.710Z,75.53
2023-01-15T07:08:52.156Z,75.30
2023-01-15T07:11:50.636Z,74.84
2023-01-15T07:14:43.455Z,74.99
2023-01-15T07:17:36.400Z,74.83
2023-01-15T07:20:29.437Z,74.59
2023-01-15T07:23:05.083Z,74.60
2023-01-15T07:25:40.065Z,74.37
2023-01-15T07:28:32.811Z,74.31
2023-01-15T07:31:25.549Z,74.64
2023-01-15T07:34:18.697Z,74.21
2023-01-15T07:37:11.995Z,73.96
2023-01-15T07:39:58.078Z,73.86
2023-01-15T07:43:08.257Z,74.10
2023-01-15T07:46:18.653Z,73.57
2023-01-15T07:49:24.728Z,73.57
2023-01-15T07:52:19.895Z,73.35
2023-01-15T07:55:13.922Z,73.35
2023-01-15T07:58:07.160Z,73.34
2023-01-15T08:01:00.462Z,73.27
2023-01-15T08:03:53.859Z,73.36
2023-01-15T08:06:46.748Z,73.38
2023-01-15T08:09:39.863Z,73.10
2023-01-15T08:12:50.416Z,72.86
2023-01-15T08:15:45.623Z,72.62
2023-01-15T08:18:31.368Z,72.27
2023-01-15T08:21:23.789Z,72.17
2023-01-15T08:24:16.597Z,72.10
2023-01-15T08:27:09.535Z,71.41
2023-01-15T08:30:02.613Z,71.72
2023-01-15T08:33:00.386Z,71.85
2023-01-15T08:35:47.079Z,71.50
2023-01-15T08:38:38.758Z,71.56
2023-01-15T08:41:30.492Z,71.82
2023-01-15T08:44:23.930Z,71.70
2023-01-15T08:47:09.737Z,71.50
2023-01-15T08:49:55.256Z,71.57
2023-01-15T08:52:50.291Z,71.45
2023-01-15T08:55:41.914Z,71.22
2023-01-15T08:58:31.854Z,70.90
2023-01-15T09:01:10.110Z,70.67
2023-01-15T09:04:02.086Z,70.80
2023-01-15T09:06:55.651Z,70.61
2023-01-15T09:09:39.618Z,70.36
2023-01-15T09:12:31.709Z,69.91
2023-01-15T09:15:19.262Z,69.94
2023-01-15T09:18:13.165Z,69.91
2023-01-15T09:20:58.028Z,70.05
2023-01-15T09:23:50.964Z,69.97
2023-01-15T09:26:44.061Z,69.82
2023-01-15T09:29:37.048Z,69.86
2023-01-15T09:32:17.799Z,69.38
2023-01-15T09:35:05.936Z,68.89
2023-01-15T09:38:00.993Z,68.71
2023-01-15T09:40:42.120Z,68.39
2023-01-15T09:43:51.082Z,68.08
2023-01-15T09:46:47.571Z,67.85
2023-01-15T09:49:59.107Z,67.37
2023-01-15T09:53:12.130Z,67.32
2023-01-15T09:56:06.164Z,66.83
2023-01-15T09:59:01.164Z,66.61
2023-01-15T10:01:55.146Z,66.44
2023-01-15T10:04:53.645Z,66.39
2023-01-15T10:07:36.017Z,66.47
2023-01-15T10:10:34.130Z,66.17
2023-01-15T10:13:28.947Z,66.31
2023-01-15T10:16:23.387Z,66.27
2023-01-15T10:19:12.091Z,66.03
2023-01-15T10:22:12.909Z,65.86
2023-01-15T10:24:59.935Z,65.72
2023-01-15T10:27:54.805Z,65.08
2023-01-15T10:30:49.037Z,65.40
2023-01-15T10:33:39.728Z,65.19
2023-01-15T10:36:22.961Z,65.12
2023-01-15T10:39:24.267Z,64.91
2023-01-15T10:42:33.153Z,64.78
2023-01-15T10:45:30.005Z,64.74
2023-01-15T10:48:23.155Z,64.78
2023-01-15T10:51:19.205Z,64.32
2023-01-15T10:54:09.341Z,64.50
2023-01-15T10:57:11.728Z,64.32
2023-01-15T11:00:08.755Z,64.32
2023-01-15T11:03:07.683Z,64.37
2023-01-15T11:06:02.281Z,64.68
2023-01-15T11:09:12.856Z,64.96
2023-01-15T11:12:41.027Z,65.08
2023-01-15T11:15:51.835Z,64.85
2023-01-15T11:19:04.461Z,65.13
2023-01-15T11:21:58.082Z,64.78
2023-01-15T11:25:01.123Z,64.74
2023-01-15T11:27:56.673Z,64.59
2023-01-15T11:30:56.512Z,64.93
2023-01-15T11:33:47.065Z,65.10
2023-01-15T11:36:40.068Z,65.06
2023-01-15T11:39:33.550Z,64.81
2023-01-15T11:42:37.722Z,65.05
2023-01-15T11:45:47.785Z,65.08
2023-01-15T11:48:48.028Z,65.07
2023-01-15T11:51:23.912Z,65.03
2023-01-15T11:54:19.245Z,65.05
2023-01-15T11:57:13.372Z,65.06
2023-01-15T11:59:53.335Z,65.22
2023-01-15T12:02:38.466Z,65.74
2023-01-15T12:05:20.848Z,65.92
2023-01-15T12:08:25.081Z,66.42
2023-01-15T12:11:46.418Z,66.69
2023-01-15T12:14:54.641Z,66.59
2023-01-15T12:18:07.663Z,66.73
2023-01-15T12:21:04.709Z,66.66
2023-01-15T12:24:14.521Z,66.41
2023-01-15T12:27:24.710Z,66.47
2023-01-15T12:30:20.880Z,66.41
2023-01-15T12:33:37.206Z,66.44
2023-01-15T12:36:33.757Z,66.57
2023-01-15T12:39:32.176Z,66.87
2023-01-15T12:42:44.273Z,67.01
2023-01-15T12:45:41.549Z,67.02
2023-01-15T12:48:41.023Z,67.39
2023-01-15T12:51:28.811Z,67.62
2023-01-15T12:54:30.944Z,68.10
2023-01-15T12:57:32.607Z,68.33
2023-01-15T13:00:33.154Z,68.37
2023-01-15T13:03:30.333Z,68.68
2023-01-15T13:06:28.827Z,68.81
2023-01-15T13:09:10.584Z,68.82
2023-01-15T13:12:04.971Z,69.14
2023-01-15T13:14:58.303Z,69.36
2023-01-15T13:17:39.476Z,69.94
2023-01-15T13:20:48.916Z,70.27
2023-01-15T13:24:02.894Z,70.48
2023-01-15T13:27:12.198Z,70.64
2023-01-15T13:30:16.947Z,70.70
2023-01-15T13:33:18.042Z,70.79
2023-01-15T13:35:53.618Z,70.89
2023-01-15T13:38:32.409Z,70.98
2023-01-15T13:41:12.247Z,71.09
2023-01-15T13:44:04.304Z,71.06
2023-01-15T13:47:06.466Z,70.97
2023-01-15T13:49:51.007Z,71.03
2023-01-15T13:52:44.168Z,70.93
2023-01-15T13:55:33.633Z,70.98
2023-01-15T13:58:27.441Z,71.25
2023-01-15T14:01:34.210Z,71.79
2023-01-15T14:04:39.047Z,72.10
2023-01-15T14:07:38.572Z,72.26
2023-01-15T14:10:34.950Z,72.48
2023-01-15T14:13:54.996Z,72.91
2023-01-15T14:17:00.157Z,73.11
2023-01-15T14:20:22.273Z,73.52
2023-01-15T14:23:40.011Z,73.78
2023-01-15T14:26:33.785Z,73.99
2023-01-15T14:29:47.215Z,74.24
2023-01-15T14:32:54.300Z,74.63
2023-01-15T14:35:50.587Z,74.83
2023-01-15T14:38:52.752Z,75.15
2023-01-15T14:41:59.973Z,76.16
2023-01-15T14:45:03.297Z,76.90
2023-01-15T14:47:58.008Z,77.74
2023-01-15T14:50:52.795Z,78.67
2023-01-15T14:53:49.809Z,79.38
2023-01-15T14:56:47.758Z,79.90
2023-01-15T14:59:50.101Z,80.63
2023-01-15T15:02:40.400Z,81.01
2023-01-15T15:05:36.599Z,81.57
2023-01-15T15:08:34.020Z,81.90
2023-01-15T15:11:52.947Z,82.25
2023-01-15T15:14:27.756Z,82.38
2023-01-15T15:17:31.105Z,82.65
2023-01-15T15:20:31.561Z,82.65
2023-01-15T15:23:29.946Z,82.77
2023-01-15T15:26:28.485Z,82.84
2023-01-15T15:29:22.614Z,83.07
2023-01-15T15:32:19.106Z,83.17
2023-01-15T15:35:27.578Z,83.35
2023-01-15T15:38:20.889Z,83.51
2023-01-15T15:41:07.838Z,83.84
2023-01-15T15:44:04.740Z,84.22
2023-01-15T15:47:14.888Z,84.75
2023-01-15T15:50:08.991Z,85.21
2023-01-15T15:53:04.625Z,85.39
2023-01-15T15:55:59.175Z,85.42
2023-01-15T15:58:52.244Z,85.67
2023-01-15T16:01:45.637Z,85.92
2023-01-15T16:04:38.502Z,86.03
2023-01-15T16:07:33.843Z,86.19
2023-01-15T16:10:21.041Z,86.08
2023-01-15T16:12:57.755Z,86.38
2023-01-15T16:15:35.891Z,86.64
2023-01-15T16:18:25.485Z,86.61
2023-01-15T16:21:03.003Z,86.74
2023-01-15T16:24:03.726Z,86.90
2023-01-15T16:26:50.759Z,87.16
2023-01-15T16:29:48.913Z,87.32
2023-01-15T16:32:33.114Z,87.25
2023-01-15T16:35:27.103Z,87.20
2023-01-15T16:38:24.273Z,87.33
2023-01-15T16:41:27.629Z,87.38
2023-01-15T16:44:37.832Z,87.33
2023-01-15T16:47:26.592Z,87.37
2023-01-15T16:50:32.428Z,87.43
2023-01-15T16:53:41.291Z,87.40
2023-01-15T16:56:54.848Z,87.41
2023-01-15T17:00:00.583Z,87.53
2023-01-15T17:02:48.692Z,87.68
2023-01-15T17:05:41.852Z,87.59
2023-01-15T17:08:32.513Z,87.79
2023-01-15T17:11:07.617Z,87.81
2023-01-15T17:13:51.800Z,87.85
2023-01-15T17:16:46.514Z,87.94
2023-01-15T17:19:39.360Z,88.09
2023-01-15T17:22:26.678Z,88.12
2023-01-15T17:25:28.003Z,88.14
2023-01-15T17:28:13.392Z,88.04
2023-01-15T17:31:06.397Z,88.17
2023-01-15T17:33:59.184Z,88.22
2023-01-15T17:36:51.937Z,88.14
2023-01-15T17:39:44.099Z,88.07
2023-01-15T17:42:36.874Z,88.15
2023-01-15T17:45:31.469Z,88.29
2023-01-15T17:48:24.270Z,88.41
2023-01-15T17:51:18.671Z,88.32
2023-01-15T17:54:11.447Z,88.20
2023-01-15T17:57:01.193Z,88.38
2023-01-15T18:00:11.616Z,88.27
2023-01-15T18:03:23.930Z,88.07
2023-01-15T18:06:11.292Z,88.05
2023-01-15T18:09:08.946Z,88.15
2023-01-15T18:12:01.851Z,88.11
2023-01-15T18:14:54.822Z,88.12
2023-01-15T18:17:47.926Z,88.17
2023-01-15T18:20:33.936Z,88.10
2023-01-15T18:23:27.166Z,88.02
2023-01-15T18:26:21.223Z,88.32
2023-01-15T18:29:06.837Z,88.39
2023-01-15T18:31:59.841Z,88.31
2023-01-15T18:34:34.927Z,88.39
2023-01-15T18:37:08.427Z,88.25
2023-01-15T18:40:01.381Z,88.32
2023-01-15T18:43:14.074Z,88.35
2023-01-15T18:46:27.664Z,88.15
2023-01-15T18:49:38.790Z,88.25
2023-01-15T18:52:42.068Z,88.21
2023-01-15T18:55:34.943Z,88.24
2023-01-15T18:58:21.925Z,88.33
2023-01-15T19:01:14.961Z,88.44
2023-01-15T19:04:22.362Z,88.39
2023-01-15T19:07:15.226Z,88.41
2023-01-15T19:10:09.766Z,88.40
2023-01-15T19:13:03.493Z,88.65
2023-01-15T19:16:11.024Z,88.75
2023-01-15T19:19:04.015Z,88.80
2023-01-15T19:22:35.119Z,88.83
2023-01-15T19:25:30.382Z,88.94
2023-01-15T19:28:17.938Z,88.94
2023-01-15T19:31:29.542Z,89.08
2023-01-15T19:34:33.532Z,89.16
2023-01-15T19:37:20.526Z,89.24
2023-01-15T19:39:56.281Z,88.95
2023-01-15T19:43:07.208Z,88.98
2023-01-15T19:46:17.298Z,89.14
2023-01-15T19:49:35.883Z,89.16
2023-01-15T19:52:38.687Z,88.95
2023-01-15T19:55:33.216Z,89.04
2023-01-15T19:58:26.082Z,89.00
2023-01-15T20:01:19.511Z,89.09
2023-01-15T20:04:15.048Z,89.23
2023-01-15T20:07:08.946Z,89.32
2023-01-15T20:10:03.104Z,89.15
2023-01-15T20:13:07.076Z,89.03
2023-01-15T20:16:01.975Z,88.90
2023-01-15T20:18:51.974Z,88.67
2023-01-15T20:21:58.949Z,88.65
2023-01-15T20:24:51.751Z,88.72
2023-01-15T20:27:44.708Z,88.70
2023-01-15T20:30:37.511Z,88.48
2023-01-15T20:33:30.347Z,88.44
2023-01-15T20:36:24.131Z,88.48
2023-01-15T20:39:18.413Z,88.49
2023-01-15T20:42:30.067Z,88.64
2023-01-15T20:45:24.546Z,88.78
2023-01-15T20:48:34.361Z,88.62
2023-01-15T20:51:29.654Z,88.79
2023-01-15T20:54:02.320Z,88.79
2023-01-15T20:56:55.584Z,88.79
2023-01-15T20:59:48.403Z,88.95
2023-01-15T21:02:42.419Z,88.99
2023-01-15T21:05:29.392Z,88.84
2023-01-15T21:08:21.716Z,89.06
2023-01-15T21:10:56.611Z,89.01
2023-01-15T21:13:32.262Z,89.13
2023-01-15T21:16:25.315Z,88.96
2023-01-15T21:19:18.130Z,88.93
2023-01-15T21:22:11.204Z,88.93
2023-01-15T21:24:54.602Z,88.92
2023-01-15T21:27:47.926Z,89.03
2023-01-15T21:30:42.584Z,88.97
2023-01-15T21:33:35.446Z,88.99
2023-01-15T21:36:21.455Z,89.06
2023-01-15T21:39:19.125Z,88.88
2023-01-15T21:42:34.389Z,88.88
2023-01-15T21:45:28.716Z,89.20
2023-01-15T21:48:04.364Z,89.00
2023-01-15T21:50:55.967Z,88.92
2023-01-15T21:53:48.862Z,89.04
2023-01-15T21:56:41.877Z,89.18
2023-01-15T21:59:35.593Z,89.23
2023-01-15T22:02:23.343Z,89.21
2023-01-15T22:05:20.120Z,89.44
2023-01-15T22:08:19.505Z,89.28
2023-01-15T22:11:13.730Z,89.19
2023-01-15T22:14:06.579Z,89.27
2023-01-15T22:17:02.109Z,89.23
2023-01-15T22:19:55.206Z,89.22
2023-01-15T22:22:48.898Z,89.15
2023-01-15T22:25:43.430Z,89.20
2023-01-15T22:28:36.312Z,89.12
2023-01-15T22:31:28.250Z,89.02
2023-01-15T22:34:22.591Z,88.94
2023-01-15T22:37:08.551Z,88.96
2023-01-15T22:40:05.143Z,88.95
2023-01-15T22:42:56.661Z,88.86
2023-01-15T22:45:41.268Z,88.87
2023-01-15T22:48:25.690Z,88.85
2023-01-15T22:51:12.744Z,88.77
2023-01-15T22:53:59.815Z,88.75
2023-01-15T22:56:54.661Z,88.64
2023-01-15T22:59:47.915Z,88.57
2023-01-15T23:02:56.088Z,88.37
2023-01-15T23:05:48.999Z,88.37
2023-01-15T23:08:42.042Z,88.50
2023-01-15T23:11:34.906Z,88.49
2023-01-15T23:14:22.887Z,88.41
2023-01-15T23:17:15.761Z,88.54
2023-01-15T23:20:12.109Z,88.80
2023-01-15T23:23:04.997Z,88.80
2023-01-15T23:25:57.792Z,88.94
2023-01-15T23:28:43.303Z,89.04
2023-01-15T23:31:37.007Z,89.02
2023-01-15T23:34:29.852Z,89.14
2023-01-15T23:37:22.900Z,88.99
2023-01-15T23:40:16.755Z,88.81
2023-01-15T23:43:28.459Z,88.62
2023-01-15T23:46:35.523Z,88.69
2023-01-15T23:49:21.177Z,88.60
2023-01-15T23:52:15.590Z,88.56
2023-01-15T23:55:09.130Z,88.58
2023-01-15T23:58:02.801Z,88.52
